createdAt,value
2018-02-20T00:00:59.005Z,98027.01
2018-02-20T00:02:01.913Z,98034.16
2018-02-20T00:03:04.811Z,98029.75
2018-02-20T00:04:08.144Z,98032.16
2018-02-20T00:05:11.121Z,98030.78
2018-02-20T00:06:14.103Z,98033.27
2018-02-20T00:07:17.111Z,98028.66
2018-02-20T00:08:20.118Z,98037.38
2018-02-20T00:09:23.106Z,98039.52
2018-02-20T00:10:26.427Z,98029.83
2018-02-20T00:11:29.406Z,98038.41
2018-02-20T00:12:32.424Z,98026.30
2018-02-20T00:13:35.400Z,98036.05
2018-02-20T00:14:38.413Z,98028.88
2018-02-20T00:15:41.414Z,98029.56
2018-02-20T00:16:44.725Z,98028.76
2018-02-20T00:17:47.671Z,98032.39
2018-02-20T00:18:50.650Z,98022.20
2018-02-20T00:19:53.634Z,98028.39
2018-02-20T00:20:56.643Z,98028.52
2018-02-20T00:21:59.579Z,98024.30
2018-02-20T00:23:02.545Z,98024.31
2018-02-20T00:24:05.496Z,98022.82
2018-02-20T00:25:08.475Z,98030.61
2018-02-20T00:26:11.375Z,98030.82
2018-02-20T00:27:14.287Z,98030.92
2018-02-20T00:28:17.136Z,98029.10
2018-02-20T00:29:19.974Z,98021.88
2018-02-20T00:30:22.832Z,98022.14
2018-02-20T00:31:25.769Z,98017.97
2018-02-20T00:32:28.794Z,98016.55
2018-02-20T00:33:31.796Z,98022.95
2018-02-20T00:34:35.316Z,98020.48
2018-02-20T00:35:38.251Z,98019.10
2018-02-20T00:36:41.141Z,98014.07
2018-02-20T00:37:44.224Z,98012.55
2018-02-20T00:38:47.310Z,98012.43
2018-02-20T00:39:50.318Z,98012.22
2018-02-20T00:40:53.672Z,98010.66
2018-02-20T00:41:56.666Z,98011.92
2018-02-20T00:42:59.686Z,98014.34
2018-02-20T00:44:02.740Z,98016.59
2018-02-20T00:45:05.721Z,98016.97
2018-02-20T00:46:08.893Z,98014.17
2018-02-20T00:47:12.285Z,98014.68
2018-02-20T00:48:15.408Z,98014.47
2018-02-20T00:49:18.451Z,98010.35
2018-02-20T00:50:21.896Z,98010.27
2018-02-20T00:51:25.031Z,98008.67
2018-02-20T00:52:28.200Z,98017.27
2018-02-20T00:53:31.593Z,98014.69
2018-02-20T00:54:34.678Z,98011.70
2018-02-20T00:55:37.799Z,98013.47
2018-02-20T00:56:40.825Z,98003.78
2018-02-20T00:57:44.381Z,98005.38
2018-02-20T00:58:47.783Z,98006.98
2018-02-20T00:59:51.100Z,98008.19
2018-02-20T01:00:54.095Z,98011.27
2018-02-20T01:01:57.080Z,98013.55
2018-02-20T01:03:00.064Z,98016.28
2018-02-20T01:04:03.134Z,98007.89
2018-02-20T01:05:06.097Z,98002.17
2018-02-20T01:06:09.363Z,98004.25
2018-02-20T01:07:12.384Z,98000.18
2018-02-20T01:08:15.348Z,98005.94
2018-02-20T01:09:18.349Z,98004.94
2018-02-20T01:10:21.407Z,98006.03
2018-02-20T01:11:24.373Z,98003.87
2018-02-20T01:12:27.603Z,98006.72
2018-02-20T01:13:30.597Z,98001.66
2018-02-20T01:14:33.622Z,98004.43
2018-02-20T01:15:36.606Z,98001.75
2018-02-20T01:16:39.586Z,97996.50
2018-02-20T01:17:42.562Z,97999.06
2018-02-20T01:18:45.922Z,97997.23
2018-02-20T01:19:48.831Z,98002.81
2018-02-20T01:20:51.695Z,97997.41
2018-02-20T01:21:54.591Z,97996.19
2018-02-20T01:22:57.466Z,97998.27
2018-02-20T01:24:00.346Z,97990.48
2018-02-20T01:25:03.508Z,97988.06
2018-02-20T01:26:06.361Z,97991.52
2018-02-20T01:27:09.226Z,97992.64
2018-02-20T01:28:12.136Z,97997.06
2018-02-20T01:29:14.992Z,97991.34
2018-02-20T01:30:17.851Z,97993.86
2018-02-20T01:31:21.001Z,97993.86
2018-02-20T01:32:23.870Z,97993.69
2018-02-20T01:33:26.753Z,97992.69
2018-02-20T01:34:29.638Z,97999.01
2018-02-20T01:35:32.628Z,97993.95
2018-02-20T01:36:35.895Z,97996.96
2018-02-20T01:37:39.198Z,98001.54
2018-02-20T01:38:42.171Z,97991.38
2018-02-20T01:39:45.161Z,97991.64
2018-02-20T01:40:48.144Z,97991.91
2018-02-20T01:41:51.145Z,97989.39
2018-02-20T01:42:54.162Z,97988.48
2018-02-20T01:43:57.490Z,97994.71
2018-02-20T01:45:00.452Z,97984.80
2018-02-20T01:46:03.502Z,97991.92
2018-02-20T01:47:06.474Z,97986.20
2018-02-20T01:48:09.440Z,97990.41
2018-02-20T01:49:12.442Z,97984.33
2018-02-20T01:50:15.722Z,97985.36
2018-02-20T01:51:18.728Z,97980.61
2018-02-20T01:52:21.707Z,97984.61
2018-02-20T01:53:24.685Z,97983.57
2018-02-20T01:54:27.642Z,97979.30
2018-02-20T01:55:30.576Z,97980.72
2018-02-20T01:56:33.862Z,97971.77
2018-02-20T01:57:36.871Z,97972.94
2018-02-20T01:58:39.822Z,97974.53
2018-02-20T01:59:42.797Z,97981.37
2018-02-20T02:00:45.741Z,97976.39
2018-02-20T02:01:48.721Z,97974.05
2018-02-20T02:02:51.713Z,97977.19
2018-02-20T02:03:54.723Z,97980.13
2018-02-20T02:04:57.752Z,97984.45
2018-02-20T02:06:00.703Z,97982.51
2018-02-20T02:07:03.657Z,97980.66
2018-02-20T02:08:06.631Z,97982.05
2018-02-20T02:09:09.874Z,97984.11
2018-02-20T02:10:12.838Z,97983.50
2018-02-20T02:11:15.812Z,97992.41
2018-02-20T02:12:18.798Z,97987.44
2018-02-20T02:13:21.675Z,97986.13
2018-02-20T02:14:24.603Z,97993.83
2018-02-20T02:15:27.779Z,97987.00
2018-02-20T02:16:30.642Z,97987.41
2018-02-20T02:17:33.584Z,97990.46
2018-02-20T02:18:36.485Z,97993.15
2018-02-20T02:19:39.429Z,98001.30
2018-02-20T02:20:42.311Z,97990.02
2018-02-20T02:21:45.593Z,97994.38
2018-02-20T02:22:48.566Z,98001.39
2018-02-20T02:23:51.540Z,98000.39
2018-02-20T02:24:54.524Z,97998.92
2018-02-20T02:25:57.498Z,97995.47
2018-02-20T02:27:00.438Z,97995.89
2018-02-20T02:28:03.721Z,98000.09
2018-02-20T02:29:06.706Z,97999.89
2018-02-20T02:30:09.715Z,98000.20
2018-02-20T02:31:12.663Z,97998.94
2018-02-20T02:32:15.693Z,98005.70
2018-02-20T02:33:18.663Z,98000.52
2018-02-20T02:34:21.907Z,98004.94
2018-02-20T02:35:24.919Z,97994.19
2018-02-20T02:36:28.604Z,97992.59
2018-02-20T02:37:31.584Z,97990.74
2018-02-20T02:38:34.609Z,97996.91
2018-02-20T02:39:37.571Z,97997.67
2018-02-20T02:40:40.896Z,97992.09
2018-02-20T02:41:43.882Z,97992.81
2018-02-20T02:42:46.914Z,97992.77
2018-02-20T02:43:49.892Z,97996.11
2018-02-20T02:44:52.779Z,97992.16
2018-02-20T02:45:55.752Z,97991.38
2018-02-20T02:46:59.025Z,97993.20
2018-02-20T02:48:02.019Z,97993.59
2018-02-20T02:49:05.022Z,97989.41
2018-02-20T02:50:08.051Z,97993.05
2018-02-20T02:51:11.067Z,97995.73
2018-02-20T02:52:14.070Z,98002.66
2018-02-20T02:53:17.309Z,97999.56
2018-02-20T02:54:20.316Z,97999.65
2018-02-20T02:55:23.293Z,98002.45
2018-02-20T02:56:26.263Z,98001.06
2018-02-20T02:57:29.314Z,98008.05
2018-02-20T02:58:32.305Z,98005.52
2018-02-20T02:59:35.590Z,98010.05
2018-02-20T03:00:38.661Z,98013.53
2018-02-20T03:01:41.688Z,98007.05
2018-02-20T03:02:44.646Z,98003.18
2018-02-20T03:03:47.649Z,98004.42
2018-02-20T03:04:50.523Z,98003.57
2018-02-20T03:05:53.703Z,98005.52
2018-02-20T03:06:56.582Z,98002.98
2018-02-20T03:07:59.448Z,98003.58
2018-02-20T03:09:02.306Z,98005.44
2018-02-20T03:10:05.105Z,98003.39
2018-02-20T03:11:07.928Z,97997.92
2018-02-20T03:12:11.057Z,97999.06
2018-02-20T03:13:13.872Z,98004.33
2018-02-20T03:14:16.685Z,97999.70
2018-02-20T03:15:19.656Z,98002.63
2018-02-20T03:16:22.641Z,98001.28
2018-02-20T03:17:25.599Z,97993.75
2018-02-20T03:18:28.865Z,97994.84
2018-02-20T03:19:31.856Z,97996.92
2018-02-20T03:20:34.833Z,97992.45
2018-02-20T03:21:37.804Z,97994.97
2018-02-20T03:22:40.778Z,97992.39
2018-02-20T03:23:43.752Z,97993.66
2018-02-20T03:24:47.007Z,97995.08
2018-02-20T03:25:49.897Z,97997.99
2018-02-20T03:26:52.882Z,97995.31
2018-02-20T03:27:55.841Z,97992.78
2018-02-20T03:28:58.767Z,97993.08
2018-02-20T03:30:01.749Z,97992.56
2018-02-20T03:31:05.037Z,97996.52
2018-02-20T03:32:07.948Z,97997.45
2018-02-20T03:33:10.835Z,97995.87
2018-02-20T03:34:13.715Z,97994.46
2018-02-20T03:35:16.585Z,97996.37
2018-02-20T03:36:19.554Z,97994.70
2018-02-20T03:37:22.540Z,97989.17
2018-02-20T03:38:25.492Z,97990.95
2018-02-20T03:39:28.456Z,97991.45
2018-02-20T03:40:31.519Z,97996.57
2018-02-20T03:41:34.487Z,97995.23
2018-02-20T03:42:37.476Z,97992.11
2018-02-20T03:43:40.721Z,98002.98
2018-02-20T03:44:43.695Z,97994.45
2018-02-20T03:45:46.668Z,97997.78
2018-02-20T03:46:49.711Z,97996.16
2018-02-20T03:47:54.377Z,98000.38
2018-02-20T03:48:57.415Z,98000.77
2018-02-20T03:50:00.755Z,97996.64
2018-02-20T03:51:03.742Z,97999.81
2018-02-20T03:52:06.747Z,98000.05
2018-02-20T03:53:09.727Z,97997.70
2018-02-20T03:54:12.703Z,97992.02
2018-02-20T03:55:15.696Z,97996.80
2018-02-20T03:56:19.029Z,98002.77
2018-02-20T03:57:21.986Z,98001.75
2018-02-20T03:58:24.958Z,98007.27
2018-02-20T03:59:27.922Z,98002.41
2018-02-20T04:00:30.909Z,98000.01
2018-02-20T04:01:33.863Z,97999.88
2018-02-20T04:02:37.175Z,97999.45
2018-02-20T04:03:40.131Z,98001.10
2018-02-20T04:04:43.121Z,98001.83
2018-02-20T04:05:46.105Z,97998.95
2018-02-20T04:06:49.085Z,97994.75
2018-02-20T04:07:52.077Z,97997.45
2018-02-20T04:08:55.317Z,97998.44
2018-02-20T04:09:58.370Z,98006.13
2018-02-20T04:11:01.369Z,98004.73
2018-02-20T04:12:04.365Z,98008.31
2018-02-20T04:13:07.504Z,98007.48
2018-02-20T04:14:10.438Z,98007.07
2018-02-20T04:15:13.673Z,98009.75
2018-02-20T04:16:16.623Z,98013.70
2018-02-20T04:17:19.625Z,98016.63
2018-02-20T04:18:22.598Z,98015.98
2018-02-20T04:19:25.575Z,98017.66
2018-02-20T04:20:28.566Z,98018.01
2018-02-20T04:21:31.785Z,98016.28
2018-02-20T04:22:34.787Z,98019.70
2018-02-20T04:23:37.755Z,98024.61
2018-02-20T04:24:40.787Z,98022.71
2018-02-20T04:25:43.770Z,98028.34
2018-02-20T04:26:46.714Z,98028.20
2018-02-20T04:27:50.984Z,98030.19
2018-02-20T04:28:53.958Z,98032.48
2018-02-20T04:29:56.922Z,98032.92
2018-02-20T04:30:59.925Z,98028.57
2018-02-20T04:32:02.889Z,98023.75
2018-02-20T04:33:05.907Z,98028.64
2018-02-20T04:34:09.160Z,98027.13
2018-02-20T04:35:12.117Z,98032.11
2018-02-20T04:36:15.081Z,98028.72
2018-02-20T04:37:18.145Z,98030.64
2018-02-20T04:38:21.116Z,98028.95
2018-02-20T04:39:24.075Z,98022.15
2018-02-20T04:40:27.325Z,98025.27
2018-02-20T04:41:30.278Z,98019.00
2018-02-20T04:42:33.167Z,98025.58
2018-02-20T04:43:36.069Z,98029.06
2018-02-20T04:44:38.983Z,98021.98
2018-02-20T04:45:41.942Z,98028.13
2018-02-20T04:46:45.182Z,98022.41
2018-02-20T04:47:48.203Z,98025.62
2018-02-20T04:48:51.235Z,98020.73
2018-02-20T04:49:54.436Z,98021.75
2018-02-20T04:50:57.353Z,98020.12
2018-02-20T04:52:00.240Z,98020.61
2018-02-20T04:53:03.648Z,98020.78
2018-02-20T04:54:06.585Z,98018.66
2018-02-20T04:55:09.524Z,98024.23
2018-02-20T04:56:12.504Z,98024.23
2018-02-20T04:57:15.455Z,98025.72
2018-02-20T04:58:18.413Z,98028.91
2018-02-20T04:59:21.647Z,98029.97
2018-02-20T05:00:24.582Z,98033.08
2018-02-20T05:01:27.556Z,98034.59
2018-02-20T05:02:30.497Z,98035.18
2018-02-20T05:03:33.430Z,98038.11
2018-02-20T05:04:36.371Z,98029.45
2018-02-20T05:05:39.339Z,98038.64
2018-02-20T05:06:42.370Z,98039.98
2018-02-20T05:07:45.319Z,98047.30
2018-02-20T05:08:48.356Z,98049.43
2018-02-20T05:09:51.290Z,98046.58
2018-02-20T05:10:54.514Z,98046.58
2018-02-20T05:11:57.488Z,98049.05
2018-02-20T05:13:00.454Z,98045.38
2018-02-20T05:14:03.412Z,98041.70
2018-02-20T05:15:06.361Z,98042.95
2018-02-20T05:16:09.325Z,98041.49
2018-02-20T05:17:12.284Z,98048.28
2018-02-20T05:18:15.253Z,98042.45
2018-02-20T05:19:18.148Z,98039.02
2018-02-20T05:20:21.066Z,98043.34
2018-02-20T05:21:23.987Z,98042.84
2018-02-20T05:22:27.165Z,98038.08
2018-02-20T05:23:30.034Z,98038.79
2018-02-20T05:24:32.920Z,98034.13
2018-02-20T05:25:35.906Z,98035.73
2018-02-20T05:26:38.827Z,98036.63
2018-02-20T05:27:41.787Z,98034.06
2018-02-20T05:28:45.053Z,98033.92
2018-02-20T05:29:48.091Z,98032.48
2018-02-20T05:30:51.023Z,98029.46
2018-02-20T05:31:53.992Z,98027.82
2018-02-20T05:32:56.987Z,98032.09
2018-02-20T05:33:59.946Z,98033.00
2018-02-20T05:35:03.278Z,98025.75
2018-02-20T05:36:06.232Z,98025.88
2018-02-20T05:37:09.947Z,98027.06
2018-02-20T05:38:12.933Z,98022.38
2018-02-20T05:39:15.876Z,98019.48
2018-02-20T05:40:18.814Z,98014.25
2018-02-20T05:41:22.725Z,98019.27
2018-02-20T05:42:25.655Z,98015.94
2018-02-20T05:43:28.611Z,98013.52
2018-02-20T05:44:31.568Z,98009.92
2018-02-20T05:45:34.540Z,98019.75
2018-02-20T05:46:37.507Z,98006.88
2018-02-20T05:47:40.742Z,98007.58
2018-02-20T05:48:43.696Z,98015.95
2018-02-20T05:49:46.655Z,98008.84
2018-02-20T05:50:49.593Z,98005.08
2018-02-20T05:51:52.877Z,98000.11
2018-02-20T05:52:55.786Z,98012.61
2018-02-20T05:53:59.101Z,98008.47
2018-02-20T05:55:02.110Z,98005.59
2018-02-20T05:56:05.132Z,98008.24
2018-02-20T05:57:08.147Z,98006.66
2018-02-20T05:58:11.130Z,98010.48
2018-02-20T05:59:14.637Z,98014.73
2018-02-20T06:00:17.978Z,98014.35
2018-02-20T06:01:20.942Z,98012.30
2018-02-20T06:02:23.873Z,98011.91
2018-02-20T06:03:26.830Z,98020.74
2018-02-20T06:04:29.772Z,98018.87
2018-02-20T06:05:32.780Z,98014.20
2018-02-20T06:06:36.196Z,98026.22
2018-02-20T06:07:39.163Z,98024.02
2018-02-20T06:08:42.117Z,98026.53
2018-02-20T06:09:45.052Z,98023.28
2018-02-20T06:10:47.909Z,98028.19
2018-02-20T06:11:50.799Z,98028.39
2018-02-20T06:12:54.145Z,98033.23
2018-02-20T06:13:57.589Z,98024.70
2018-02-20T06:15:00.478Z,98029.50
2018-02-20T06:16:03.435Z,98024.34
2018-02-20T06:17:06.385Z,98020.92
2018-02-20T06:18:09.355Z,98025.64
2018-02-20T06:19:12.509Z,98029.86
2018-02-20T06:20:15.457Z,98032.84
2018-02-20T06:21:18.451Z,98031.03
2018-02-20T06:22:21.464Z,98027.30
2018-02-20T06:23:24.418Z,98032.63
2018-02-20T06:24:27.914Z,98030.77
2018-02-20T06:25:30.867Z,98035.53
2018-02-20T06:26:33.880Z,98037.56
2018-02-20T06:27:36.942Z,98038.75
2018-02-20T06:28:39.891Z,98039.48
2018-02-20T06:29:43.081Z,98042.25
2018-02-20T06:30:46.642Z,98034.77
2018-02-20T06:31:49.593Z,98039.77
2018-02-20T06:32:52.624Z,98045.29
2018-02-20T06:33:55.578Z,98039.08
2018-02-20T06:34:58.804Z,98037.67
2018-02-20T06:36:01.779Z,98033.89
2018-02-20T06:37:05.211Z,98041.53
2018-02-20T06:38:08.138Z,98036.55
2018-02-20T06:39:11.140Z,98035.83
2018-02-20T06:40:14.124Z,98035.91
2018-02-20T06:41:17.072Z,98033.63
2018-02-20T06:42:20.054Z,98036.48
2018-02-20T06:43:24.314Z,98041.28
2018-02-20T06:44:27.271Z,98034.45
2018-02-20T06:45:30.228Z,98039.92
2018-02-20T06:46:33.176Z,98036.85
2018-02-20T06:47:36.126Z,98041.66
2018-02-20T06:48:39.097Z,98038.98
2018-02-20T06:49:42.037Z,98046.59
2018-02-20T06:50:45.917Z,98045.08
2018-02-20T06:51:48.955Z,98050.62
2018-02-20T06:52:51.914Z,98045.97
2018-02-20T06:53:54.872Z,98050.36
2018-02-20T06:54:58.237Z,98051.30
2018-02-20T06:56:01.230Z,98044.84
2018-02-20T06:57:04.217Z,98043.94
2018-02-20T06:58:07.232Z,98044.00
2018-02-20T06:59:10.206Z,98048.19
2018-02-20T07:00:13.726Z,98048.80
2018-02-20T07:01:17.072Z,98047.17
2018-02-20T07:02:19.975Z,98045.17
2018-02-20T07:03:22.890Z,98045.52
2018-02-20T07:04:25.800Z,98046.56
2018-02-20T07:05:28.680Z,98048.17
2018-02-20T07:06:31.735Z,98048.63
2018-02-20T07:07:35.025Z,98049.34
2018-02-20T07:08:38.437Z,98053.20
2018-02-20T07:09:41.356Z,98059.08
2018-02-20T07:10:44.286Z,98052.72
2018-02-20T07:11:47.276Z,98050.87
2018-02-20T07:12:50.297Z,98053.07
2018-02-20T07:13:53.595Z,98053.52
2018-02-20T07:14:56.470Z,98053.55
2018-02-20T07:15:59.321Z,98060.03
2018-02-20T07:17:02.315Z,98055.63
2018-02-20T07:18:05.115Z,98060.71
2018-02-20T07:19:07.908Z,98062.21
2018-02-20T07:20:11.704Z,98060.84
2018-02-20T07:21:14.524Z,98062.53
2018-02-20T07:22:17.407Z,98060.14
2018-02-20T07:23:20.368Z,98066.13
2018-02-20T07:24:23.238Z,98066.23
2018-02-20T07:25:26.115Z,98062.91
2018-02-20T07:26:29.589Z,98063.62
2018-02-20T07:27:32.607Z,98057.04
2018-02-20T07:28:35.572Z,98063.05
2018-02-20T07:29:38.597Z,98062.41
2018-02-20T07:30:41.617Z,98061.36
2018-02-20T07:31:44.574Z,98060.67
2018-02-20T07:32:48.007Z,98058.97
2018-02-20T07:33:51.103Z,98061.37
2018-02-20T07:34:54.083Z,98065.39
2018-02-20T07:35:57.168Z,98065.03
2018-02-20T07:37:00.175Z,98065.56
2018-02-20T07:38:03.166Z,98068.08
2018-02-20T07:39:06.529Z,98066.97
2018-02-20T07:40:09.503Z,98061.88
2018-02-20T07:41:12.485Z,98062.36
2018-02-20T07:42:15.434Z,98066.91
2018-02-20T07:43:18.465Z,98068.06
2018-02-20T07:44:21.399Z,98065.05
2018-02-20T07:45:24.797Z,98066.44
2018-02-20T07:46:27.756Z,98068.98
2018-02-20T07:47:30.729Z,98062.87
2018-02-20T07:48:33.677Z,98069.42
2018-02-20T07:49:36.595Z,98064.92
2018-02-20T07:50:39.597Z,98064.26
2018-02-20T07:51:42.966Z,98065.31
2018-02-20T07:52:45.786Z,98061.50
2018-02-20T07:53:48.563Z,98057.31
2018-02-20T07:54:51.357Z,98062.70
2018-02-20T07:55:54.200Z,98052.69
2018-02-20T07:56:57.090Z,98054.25
2018-02-20T07:58:00.364Z,98058.21
2018-02-20T07:59:03.319Z,98054.73
2018-02-20T08:00:06.299Z,98057.53
2018-02-20T08:01:09.298Z,98052.90
2018-02-20T08:02:12.322Z,98052.36
2018-02-20T08:03:15.248Z,98052.77
2018-02-20T08:04:18.790Z,98051.44
2018-02-20T08:05:21.754Z,98052.83
2018-02-20T08:06:25.089Z,98048.36
2018-02-20T08:07:28.083Z,98047.03
2018-02-20T08:08:31.037Z,98047.71
2018-02-20T08:09:34.025Z,98046.93
2018-02-20T08:10:37.196Z,98042.71
2018-02-20T08:11:40.088Z,98041.13
2018-02-20T08:12:43.050Z,98035.98
2018-02-20T08:13:45.915Z,98040.83
2018-02-20T08:14:48.788Z,98045.27
2018-02-20T08:15:51.684Z,98041.02
2018-02-20T08:16:54.878Z,98047.80
2018-02-20T08:17:57.751Z,98038.12
2018-02-20T08:19:00.648Z,98037.76
2018-02-20T08:20:03.605Z,98036.98
2018-02-20T08:21:07.280Z,98036.77
2018-02-20T08:22:10.170Z,98039.28
2018-02-20T08:23:13.569Z,98036.98
2018-02-20T08:24:16.473Z,98043.95
2018-02-20T08:25:19.470Z,98043.88
2018-02-20T08:26:22.457Z,98053.34
2018-02-20T08:27:25.437Z,98048.17
2018-02-20T08:28:28.428Z,98046.83
2018-02-20T08:29:31.659Z,98047.17
2018-02-20T08:30:34.561Z,98049.81
2018-02-20T08:31:37.448Z,98040.91
2018-02-20T08:32:40.240Z,98053.80
2018-02-20T08:33:43.206Z,98047.13
2018-02-20T08:34:46.165Z,98042.69
2018-02-20T08:35:49.810Z,98053.12
2018-02-20T08:36:52.771Z,98049.63
2018-02-20T08:37:55.681Z,98043.33
2018-02-20T08:38:58.666Z,98049.03
2018-02-20T08:40:01.635Z,98044.44
2018-02-20T08:41:04.632Z,98044.42
2018-02-20T08:42:08.063Z,98047.41
2018-02-20T08:43:11.019Z,98047.67
2018-02-20T08:44:13.983Z,98044.97
2018-02-20T08:45:17.006Z,98044.14
2018-02-20T08:46:20.035Z,98050.45
2018-02-20T08:47:22.991Z,98052.47
2018-02-20T08:48:26.382Z,98051.13
2018-02-20T08:49:29.419Z,98055.63
2018-02-20T08:50:32.349Z,98056.95
2018-02-20T08:51:35.272Z,98054.25
2018-02-20T08:52:38.226Z,98052.63
2018-02-20T08:53:41.156Z,98048.42
2018-02-20T08:54:44.494Z,98050.22
2018-02-20T08:55:47.484Z,98050.32
2018-02-20T08:56:50.460Z,98056.33
2018-02-20T08:57:53.454Z,98054.41
2018-02-20T08:58:56.458Z,98048.31
2018-02-20T08:59:59.448Z,98048.70
2018-02-20T09:01:03.067Z,98050.84
2018-02-20T09:02:06.060Z,98047.03
2018-02-20T09:03:09.048Z,98047.83
2018-02-20T09:04:12.029Z,98045.65
2018-02-20T09:05:15.046Z,98053.14
2018-02-20T09:06:18.646Z,98045.04
2018-02-20T09:07:22.073Z,98047.70
2018-02-20T09:08:25.059Z,98048.68
2018-02-20T09:09:27.923Z,98046.70
2018-02-20T09:10:30.804Z,98045.22
2018-02-20T09:11:33.638Z,98045.38
2018-02-20T09:12:36.685Z,98042.45
2018-02-20T09:13:40.141Z,98044.19
2018-02-20T09:14:43.158Z,98046.27
2018-02-20T09:15:46.115Z,98043.56
2018-02-20T09:16:49.255Z,98037.95
2018-02-20T09:17:52.360Z,98039.80
2018-02-20T09:18:56.020Z,98035.44
2018-02-20T09:19:59.537Z,98038.20
2018-02-20T09:21:02.514Z,98041.99
2018-02-20T09:22:05.464Z,98038.66
2018-02-20T09:23:08.352Z,98035.23
2018-02-20T09:24:11.366Z,98044.23
2018-02-20T09:25:14.397Z,98043.80
2018-02-20T09:26:17.747Z,98040.95
2018-02-20T09:27:21.219Z,98041.37
2018-02-20T09:28:24.211Z,98043.91
2018-02-20T09:29:27.620Z,98044.09
2018-02-20T09:30:30.658Z,98045.44
2018-02-20T09:31:33.608Z,98044.67
2018-02-20T09:32:37.044Z,98042.70
2018-02-20T09:33:40.086Z,98048.73
2018-02-20T09:34:43.114Z,98044.48
2018-02-20T09:35:47.062Z,98044.80
2018-02-20T09:36:50.053Z,98049.64
2018-02-20T09:37:52.946Z,98041.52
2018-02-20T09:38:56.308Z,98045.30
2018-02-20T09:39:59.264Z,98042.91
2018-02-20T09:41:02.251Z,98047.31
2018-02-20T09:42:05.205Z,98048.66
2018-02-20T09:43:08.883Z,98050.77
2018-02-20T09:44:11.881Z,98053.52
2018-02-20T09:45:15.282Z,98048.96
2018-02-20T09:46:18.235Z,98048.93
2018-02-20T09:47:21.290Z,98049.59
2018-02-20T09:48:24.322Z,98049.13
2018-02-20T09:49:27.302Z,98042.59
2018-02-20T09:50:30.337Z,98047.55
2018-02-20T09:51:33.785Z,98050.80
2018-02-20T09:52:36.809Z,98045.66
2018-02-20T09:53:39.705Z,98045.21
2018-02-20T09:54:42.605Z,98046.44
2018-02-20T09:55:45.463Z,98046.05
2018-02-20T09:56:48.483Z,98047.46
2018-02-20T09:57:51.840Z,98047.14
2018-02-20T09:58:54.832Z,98053.49
2018-02-20T09:59:57.831Z,98057.17
2018-02-20T10:01:00.806Z,98055.88
2018-02-20T10:02:04.759Z,98054.45
2018-02-20T10:03:07.759Z,98052.74
2018-02-20T10:04:11.102Z,98057.24
2018-02-20T10:05:14.080Z,98058.51
2018-02-20T10:06:17.032Z,98059.44
2018-02-20T10:07:20.041Z,98058.92
2018-02-20T10:08:23.112Z,98056.39
2018-02-20T10:09:26.084Z,98054.41
2018-02-20T10:10:29.526Z,98055.95
2018-02-20T10:11:32.511Z,98057.68
2018-02-20T10:12:35.481Z,98060.86
2018-02-20T10:13:38.480Z,98066.33
2018-02-20T10:14:41.462Z,98074.30
2018-02-20T10:15:44.452Z,98067.88
2018-02-20T10:16:48.176Z,98069.18
2018-02-20T10:17:51.959Z,98067.95
2018-02-20T10:18:54.957Z,98067.94
2018-02-20T10:19:57.917Z,98072.52
2018-02-20T10:21:00.874Z,98074.69
2018-02-20T10:22:04.121Z,98076.00
2018-02-20T10:23:07.501Z,98078.41
2018-02-20T10:24:10.473Z,98067.02
2018-02-20T10:25:13.432Z,98077.44
2018-02-20T10:26:16.354Z,98074.62
2018-02-20T10:27:19.285Z,98074.20
2018-02-20T10:28:22.348Z,98070.93
2018-02-20T10:29:25.711Z,98065.64
2018-02-20T10:30:28.674Z,98071.06
2018-02-20T10:31:31.579Z,98071.55
2018-02-20T10:32:34.511Z,98066.72
2018-02-20T10:33:37.442Z,98068.76
2018-02-20T10:34:40.453Z,98067.02
2018-02-20T10:35:43.741Z,98065.40
2018-02-20T10:36:46.560Z,98060.19
2018-02-20T10:37:49.384Z,98066.02
2018-02-20T10:38:52.194Z,98061.85
2018-02-20T10:39:55.107Z,98063.39
2018-02-20T10:40:58.013Z,98069.88
2018-02-20T10:42:01.480Z,98057.97
2018-02-20T10:43:04.451Z,98059.73
2018-02-20T10:44:07.475Z,98058.39
2018-02-20T10:45:10.490Z,98066.27
2018-02-20T10:46:13.472Z,98064.52
2018-02-20T10:47:16.597Z,98065.34
2018-02-20T10:48:20.018Z,98062.59
2018-02-20T10:49:23.027Z,98064.91
2018-02-20T10:50:26.033Z,98061.81
2018-02-20T10:51:29.065Z,98065.14
2018-02-20T10:52:32.152Z,98063.17
2018-02-20T10:53:35.057Z,98062.12
2018-02-20T10:54:38.281Z,98058.88
2018-02-20T10:55:41.305Z,98061.17
2018-02-20T10:56:44.294Z,98066.81
2018-02-20T10:57:47.312Z,98061.34
2018-02-20T10:58:50.372Z,98058.75
2018-02-20T10:59:53.799Z,98058.99
2018-02-20T11:00:57.168Z,98056.74
2018-02-20T11:02:00.198Z,98051.75
2018-02-20T11:03:03.145Z,98052.09
2018-02-20T11:04:06.098Z,98060.85
2018-02-20T11:05:09.057Z,98057.33
2018-02-20T11:06:12.039Z,98057.41
2018-02-20T11:07:15.034Z,98048.04
2018-02-20T11:08:18.002Z,98057.37
2018-02-20T11:09:21.006Z,98056.28
2018-02-20T11:10:24.013Z,98048.47
2018-02-20T11:11:26.859Z,98051.30
2018-02-20T11:12:30.246Z,98044.66
2018-02-20T11:13:33.244Z,98046.48
2018-02-20T11:14:36.197Z,98043.41
2018-02-20T11:15:39.155Z,98043.91
2018-02-20T11:16:42.138Z,98035.17
2018-02-20T11:17:45.096Z,98041.84
2018-02-20T11:18:48.560Z,98040.50
2018-02-20T11:19:51.559Z,98038.69
2018-02-20T11:20:54.792Z,98038.58
2018-02-20T11:21:58.022Z,98042.03
2018-02-20T11:23:01.010Z,98041.85
2018-02-20T11:24:03.923Z,98035.59
2018-02-20T11:25:07.342Z,98028.34
2018-02-20T11:26:10.859Z,98036.83
2018-02-20T11:27:13.808Z,98035.05
2018-02-20T11:28:16.949Z,98033.20
2018-02-20T11:29:19.939Z,98032.88
2018-02-20T11:30:22.900Z,98035.52
2018-02-20T11:31:25.879Z,98032.32
2018-02-20T11:32:28.863Z,98034.09
2018-02-20T11:33:31.843Z,98031.84
2018-02-20T11:34:34.816Z,98033.44
2018-02-20T11:35:37.772Z,98027.72
2018-02-20T11:36:40.779Z,98026.27
2018-02-20T11:37:44.070Z,98029.02
2018-02-20T11:38:47.084Z,98029.32
2018-02-20T11:39:50.100Z,98023.48
2018-02-20T11:40:53.094Z,98029.64
2018-02-20T11:41:56.029Z,98023.64
2018-02-20T11:42:59.046Z,98023.87
2018-02-20T11:44:02.617Z,98025.14
2018-02-20T11:45:05.611Z,98024.04
2018-02-20T11:46:08.560Z,98021.95
2018-02-20T11:47:11.542Z,98026.41
2018-02-20T11:48:14.583Z,98021.08
2018-02-20T11:49:17.615Z,98021.93
2018-02-20T11:50:20.626Z,98019.50
2018-02-20T11:51:23.571Z,98018.33
2018-02-20T11:52:26.520Z,98012.92
2018-02-20T11:53:29.521Z,98016.69
2018-02-20T11:54:32.500Z,98023.61
2018-02-20T11:55:35.929Z,98019.53
2018-02-20T11:56:38.931Z,98021.19
2018-02-20T11:57:41.870Z,98016.44
2018-02-20T11:58:44.964Z,98018.13
2018-02-20T11:59:47.969Z,98023.39
2018-02-20T12:00:50.933Z,98027.03
2018-02-20T12:01:54.370Z,98027.56
2018-02-20T12:02:57.365Z,98021.92
2018-02-20T12:04:00.354Z,98017.47
2018-02-20T12:05:03.284Z,98014.60
2018-02-20T12:06:06.309Z,98022.23
2018-02-20T12:07:09.327Z,98014.52
2018-02-20T12:08:12.662Z,98020.73
2018-02-20T12:09:15.621Z,98025.55
2018-02-20T12:10:18.602Z,98020.22
2018-02-20T12:11:21.574Z,98021.34
2018-02-20T12:12:24.501Z,98022.67
2018-02-20T12:13:27.394Z,98016.34
2018-02-20T12:14:30.651Z,98018.61
2018-02-20T12:15:33.567Z,98025.99
2018-02-20T12:16:36.531Z,98024.02
2018-02-20T12:17:39.489Z,98015.38
2018-02-20T12:18:42.479Z,98017.98
2018-02-20T12:19:45.960Z,98024.81
2018-02-20T12:20:48.981Z,98022.02